• Join FlightAware (Why Join?)
  • Login
  • US Flag 
07:20PM EDT


 

Airport Tracker/Info


-or-


 

Live Flight TrackerFlight Track Log ✈ ASQ4233 ✈ 28-Apr-2013 ✈ KLFT - KIAH

Flight Track Log - Related Links

Times and Time Zones

All times are in EDT time to prevent confusion due to time zone crossing. See the ASQ4233 flight status page for this flight to view local times or setup timezone preferences in your user account.

Time Position Orientation Groundspeed Altitude Reporting Facility
EDT Latitude Longitude Course Direction KTS MPH feet Rate Location/Type
07:57PM 30.0403 -92.1907 229° Southwest  Level FlightAware Approximate
07:57PM 30.1075 -92.1300 234° Southwest 237 273 6,300  Level Houston Center
07:58PM 29.9974 -92.2646 229° Southwest  Level FlightAware Approximate
07:58PM 30.0619 -92.2003 233° Southwest 262 302 9,000  Level Houston Center
07:59PM 29.9450 -92.3345 229° Southwest  Level FlightAware Approximate
07:59PM 30.0122 -92.2764 233° Southwest 286 329 10,700  Level Houston Center
08:00PM 29.9008 -92.4144 249° West  Level FlightAware Approximate
08:00PM 29.9425 -92.3819 233° Southwest 336 387 12,400  Level Houston Center
08:01PM 29.8444 -92.4862 227° Southwest  Level FlightAware Approximate
08:01PM 29.8831 -92.4742 233° Southwest 354 407 14,400  Level Houston Center
08:02PM 29.7929 -92.5630 234° Southwest  Level FlightAware Approximate
08:02PM 29.8239 -92.5633 233° Southwest 350 403 15,900  Level Houston Center
08:03PM 29.7867 -92.6756 249° West 369 425 16,000  Climbing Houston Center
08:04PM 29.7617 -92.7906 256° West 371 427 16,000  Level Houston Center
08:05PM 29.7361 -92.9064 256° West 372 428 16,000  Level Houston Center
08:06PM 29.7114 -93.0206 256° West 369 425 16,000  Level Houston Center
08:07PM 29.6833 -93.1483 256° West 343 395 16,000  Level Houston Center
08:08PM 29.6600 -93.2525 256° West 337 388 16,000  Level Houston Center
08:09PM 29.6375 -93.3556 256° West 333 383 16,000  Level Houston Center
08:10PM 29.6056 -93.4583 250° West 341 392 16,000  Level Houston Center
08:11PM 29.5656 -93.5597 246° West 348 400 16,000  Level Houston Center
08:12PM 29.5264 -93.6611 246° West 348 400 16,000 -300 Level Houston Center
08:13PM 29.4744 -93.7558 238° Southwest 349 402 15,500 -780 Descending Houston Center
08:14PM 29.4142 -93.8619 237° Southwest 333 383 14,400 -1,020 Descending Houston Center
08:15PM 29.3719 -93.9353 237° Southwest 327 376 13,500 -720 Descending Houston Center
08:16PM 29.3153 -94.0381 238° Southwest 319 367 13,000 -420 Descending Houston Center
08:17PM 29.3222 -94.0753 282° West 327 376 13,000  Level Houston Center
08:17PM 29.3606 -94.1283 310° West 340 391 13,000  Level Houston Center
08:18PM 29.3900 -94.1647 313° West 335 386 13,000  Level Houston Center
08:18PM 29.4225 -94.2056 312° West 332 382 13,000  Level Houston Center
08:19PM 29.4483 -94.2411 310° West 326 375 13,000  Level Houston Center
08:19PM 29.4831 -94.2822 314° West 326 375 13,000  Level Houston Center
08:20PM 29.5081 -94.3125 313° West 325 374 13,000  Level Houston Center
08:20PM 29.5406 -94.3617 307° West 329 379 13,000  Level Houston Center
08:21PM 29.5569 -94.4022 295° West 325 374 13,000 -780 Level Houston Center
08:21PM 29.5806 -94.4542 298° West 325 374 12,200 -1,440 Descending Houston Center
08:22PM 29.6003 -94.5025 295° West 321 369 11,400 -1,800 Descending Houston Center
08:22PM 29.6267 -94.5644 296° West 321 369 10,400 -1,380 Descending Houston Center
08:23PM 29.6411 -94.5983 296° West 324 373 10,000 -420 Descending Houston Center
08:23PM 29.6667 -94.6575 296° West 326 375 10,000  Level Houston Center
08:24PM 29.7056 -94.7489 296° West 321 369 10,000  Level Houston Center
08:25PM 29.7203 -94.7856 295° West 322 371 10,000  Level Houston Center
08:25PM 29.7442 -94.8417 296° West 324 373 10,000 -300 Level Houston Center
08:26PM 29.7586 -94.8769 295° West 298 343 9,700 -1,200 Descending Houston Center
08:27PM 29.7797 -94.9228 298° West 297 342 8,800 -1,560 Descending Houston Center
08:27PM 29.7986 -94.9683 296° West 282 325 8,000 -1,500 Descending Houston Center
08:28PM 29.8131 -95.0022 296° West 280 322 7,300 -1,200 Descending Houston Center
08:29PM 29.8536 -95.0989 296° West 282 325 6,000 -1,020 Descending Houston Center
08:29PM 29.8636 -95.1242 295° West 277 319 6,000  Level Houston Center
08:30PM 29.8869 -95.1781 297° West 278 320 6,000  Level Houston Center
08:30PM 29.8964 -95.2044 292° West 283 326 6,000  Level Houston Center
08:31PM 29.9000 -95.2883 273° West 283 326 6,000  Level Houston Center
08:32PM 29.8978 -95.3803 268° West 271 312 6,000  Level Houston Center
08:33PM 29.9000 -95.4369 273° West 263 303 6,000 -660 Level Houston Center
08:34PM 29.9011 -95.5317 271° West 245 282 4,800 -1,320 Descending Houston Center
08:35PM 29.9486 -95.5631 330° Northwest 236 272 3,300 -900 Descending Houston Center
08:36PM 29.9972 -95.5386 24° Northeast 218 251 3,000 -300 Descending Houston Center